CheckWX is a tool to help pilots better visualize weather data.  It is not intended as a substitute for an official pre-flight weather briefing.

17:10:16 UTC

KMLP METAR
Mullan Pass Vor Airport
Mullan Pass, Idaho, USA
Current

1 hour ago

KMLP 211553Z AUTO 12007KT 10SM CLR 12/02 A3025 RMK AO2 SLP168 T01220022
Observed
Jul-21 @ 15:53 UTC
Wind
  • 120° at 7 KTS
Visibility
10 SM
Flight Rules
VFR
Cloud Levels
  • Clear skies
Temperature
12°C / 54°F
Dewpoint
C / 36°F
Humidity
51%
Altimeter
30.25" Hg
Pressure
1024.42 hPa
Previous

2 hours ago

KMLP 211453Z AUTO 12007KT 10SM CLR 11/02 A3024 RMK AO2 SLP165 T01060022 53004
Observed
Jul-21 @ 14:53 UTC
Wind
  • 120° at 7 KTS
Visibility
10 SM
Flight Rules
VFR
Cloud Levels
  • Clear skies
Temperature
11°C / 52°F
Dewpoint
C / 36°F
Humidity
54%
Altimeter
30.24" Hg
Pressure
1024.02 hPa
Previous

3 hours ago

KMLP 211353Z AUTO 12004KT 10SM CLR 09/01 A3023 RMK AO2 SLP163 T00940011
Observed
Jul-21 @ 13:53 UTC
Wind
  • 120° at 4 KTS
Visibility
10 SM
Flight Rules
VFR
Cloud Levels
  • Clear skies
Temperature
C / 48°F
Dewpoint
C / 34°F
Humidity
58%
Altimeter
30.23" Hg
Pressure
1023.72 hPa